Terminal Aerodrome Forecast
Issued by NWS

Home | Current Version | Previous Version | Text Only | Print | Product List | Glossary Off
Versions: 1 2 3 4 5 6 7 8 9 10 11 12 13 14 15 16 17 18 19 20 21 22 23 24 25

000
FTUS43 KBIS 261100
TAFJMS
TAF
KJMS 261135Z 2612/2712 33006KT P6SM BKN035
     FM261400 02007KT P6SM BKN035
     FM261700 02010KT P6SM SCT035 SCT050
     FM270200 06007KT P6SM FEW040
     FM271000 14007KT P6SM SCT120 BKN180=

USA.gov is the U.S. government's official web portal to all federal, state and local government web resources and services.